sensor_id;sensor_type;location;lat;lon;timestamp;P1;durP1;ratioP1;P2;durP2;ratioP2
74415;SDS011;62850;42.428;25.618;2023-12-28T00:00:34;6.88;;;2.15;;
74415;SDS011;62850;42.428;25.618;2023-12-28T00:03:02;6.65;;;2.60;;
74415;SDS011;62850;42.428;25.618;2023-12-28T00:05:28;5.40;;;2.60;;
74415;SDS011;62850;42.428;25.618;2023-12-28T00:07:53;7.38;;;2.45;;
74415;SDS011;62850;42.428;25.618;2023-12-28T00:10:25;6.68;;;2.40;;
74415;SDS011;62850;42.428;25.618;2023-12-28T00:12:53;7.00;;;2.20;;
74415;SDS011;62850;42.428;25.618;2023-12-28T00:15:19;6.38;;;2.65;;
74415;SDS011;62850;42.428;25.618;2023-12-28T00:17:45;6.65;;;2.60;;
74415;SDS011;62850;42.428;25.618;2023-12-28T00:20:12;7.22;;;2.97;;
74415;SDS011;62850;42.428;25.618;2023-12-28T00:22:38;5.80;;;2.72;;
74415;SDS011;62850;42.428;25.618;2023-12-28T00:25:04;7.63;;;3.38;;
74415;SDS011;62850;42.428;25.618;2023-12-28T00:27:31;7.15;;;3.22;;
74415;SDS011;62850;42.428;25.618;2023-12-28T00:30:00;7.43;;;3.40;;
74415;SDS011;62850;42.428;25.618;2023-12-28T00:32:26;5.82;;;2.75;;
74415;SDS011;62850;42.428;25.618;2023-12-28T00:34:52;5.70;;;2.53;;
74415;SDS011;62850;42.428;25.618;2023-12-28T00:37:17;7.53;;;2.70;;
74415;SDS011;62850;42.428;25.618;2023-12-28T00:39:44;5.55;;;2.58;;
74415;SDS011;62850;42.428;25.618;2023-12-28T00:42:12;6.03;;;2.33;;
74415;SDS011;62850;42.428;25.618;2023-12-28T00:44:38;7.07;;;2.70;;
74415;SDS011;62850;42.428;25.618;2023-12-28T00:47:04;7.65;;;2.53;;
74415;SDS011;62850;42.428;25.618;2023-12-28T00:49:31;5.13;;;2.13;;
74415;SDS011;62850;42.428;25.618;2023-12-28T00:51:57;7.82;;;2.90;;
74415;SDS011;62850;42.428;25.618;2023-12-28T00:54:22;5.35;;;2.35;;
74415;SDS011;62850;42.428;25.618;2023-12-28T00:56:48;5.95;;;2.70;;
74415;SDS011;62850;42.428;25.618;2023-12-28T00:59:14;5.32;;;2.53;;
74415;SDS011;62850;42.428;25.618;2023-12-28T01:01:40;5.82;;;2.40;;
74415;SDS011;62850;42.428;25.618;2023-12-28T01:04:06;6.03;;;2.53;;
74415;SDS011;62850;42.428;25.618;2023-12-28T01:06:32;5.03;;;2.20;;
74415;SDS011;62850;42.428;25.618;2023-12-28T01:08:58;5.90;;;2.67;;
74415;SDS011;62850;42.428;25.618;2023-12-28T01:11:23;7.72;;;2.70;;
74415;SDS011;62850;42.428;25.618;2023-12-28T01:13:50;7.72;;;2.67;;
74415;SDS011;62850;42.428;25.618;2023-12-28T01:16:16;7.13;;;2.55;;
74415;SDS011;62850;42.428;25.618;2023-12-28T01:18:42;5.90;;;2.30;;
74415;SDS011;62850;42.428;25.618;2023-12-28T01:21:08;5.60;;;2.50;;
74415;SDS011;62850;42.428;25.618;2023-12-28T01:23:34;5.60;;;2.97;;
74415;SDS011;62850;42.428;25.618;2023-12-28T01:26:00;5.43;;;2.30;;
74415;SDS011;62850;42.428;25.618;2023-12-28T01:28:26;6.03;;;2.47;;
74415;SDS011;62850;42.428;25.618;2023-12-28T01:30:52;5.25;;;2.28;;
74415;SDS011;62850;42.428;25.618;2023-12-28T01:33:17;4.57;;;2.03;;
74415;SDS011;62850;42.428;25.618;2023-12-28T01:35:43;5.65;;;2.63;;
74415;SDS011;62850;42.428;25.618;2023-12-28T01:38:08;4.68;;;2.35;;
74415;SDS011;62850;42.428;25.618;2023-12-28T01:40:34;5.28;;;2.35;;
74415;SDS011;62850;42.428;25.618;2023-12-28T01:43:00;7.82;;;3.38;;
74415;SDS011;62850;42.428;25.618;2023-12-28T01:45:26;7.15;;;3.47;;
74415;SDS011;62850;42.428;25.618;2023-12-28T01:47:52;6.35;;;2.75;;
74415;SDS011;62850;42.428;25.618;2023-12-28T01:50:19;7.13;;;2.70;;
74415;SDS011;62850;42.428;25.618;2023-12-28T01:52:47;7.90;;;2.80;;
74415;SDS011;62850;42.428;25.618;2023-12-28T01:55:14;8.63;;;2.90;;
74415;SDS011;62850;42.428;25.618;2023-12-28T01:57:40;7.60;;;3.10;;
74415;SDS011;62850;42.428;25.618;2023-12-28T02:00:06;5.75;;;2.42;;
74415;SDS011;62850;42.428;25.618;2023-12-28T02:02:33;7.53;;;2.58;;
74415;SDS011;62850;42.428;25.618;2023-12-28T02:05:01;6.35;;;2.38;;
74415;SDS011;62850;42.428;25.618;2023-12-28T02:07:27;5.22;;;2.13;;
74415;SDS011;62850;42.428;25.618;2023-12-28T02:09:54;5.20;;;2.30;;
74415;SDS011;62850;42.428;25.618;2023-12-28T02:12:20;6.18;;;2.15;;
74415;SDS011;62850;42.428;25.618;2023-12-28T02:14:46;6.95;;;2.60;;
74415;SDS011;62850;42.428;25.618;2023-12-28T02:17:16;6.40;;;2.40;;
74415;SDS011;62850;42.428;25.618;2023-12-28T02:19:51;6.63;;;2.60;;
74415;SDS011;62850;42.428;25.618;2023-12-28T02:22:19;5.20;;;2.28;;
74415;SDS011;62850;42.428;25.618;2023-12-28T02:25:04;6.05;;;2.47;;
74415;SDS011;62850;42.428;25.618;2023-12-28T02:27:38;6.15;;;2.63;;
74415;SDS011;62850;42.428;25.618;2023-12-28T02:30:04;7.75;;;2.90;;
74415;SDS011;62850;42.428;25.618;2023-12-28T02:35:32;8.45;;;3.17;;
74415;SDS011;62850;42.428;25.618;2023-12-28T02:38:02;7.15;;;2.92;;
74415;SDS011;62850;42.428;25.618;2023-12-28T02:40:38;8.27;;;4.05;;
74415;SDS011;62850;42.428;25.618;2023-12-28T02:43:06;9.13;;;3.30;;
74415;SDS011;62850;42.428;25.618;2023-12-28T02:45:32;6.90;;;3.05;;
74415;SDS011;62850;42.428;25.618;2023-12-28T02:47:58;6.40;;;2.95;;
74415;SDS011;62850;42.428;25.618;2023-12-28T02:50:24;7.38;;;2.97;;
74415;SDS011;62850;42.428;25.618;2023-12-28T02:52:50;7.88;;;4.28;;
74415;SDS011;62850;42.428;25.618;2023-12-28T02:55:16;10.65;;;5.40;;
74415;SDS011;62850;42.428;25.618;2023-12-28T02:57:46;12.95;;;7.15;;
74415;SDS011;62850;42.428;25.618;2023-12-28T03:00:12;15.57;;;9.02;;
74415;SDS011;62850;42.428;25.618;2023-12-28T03:02:38;16.80;;;8.65;;
74415;SDS011;62850;42.428;25.618;2023-12-28T03:05:04;13.25;;;6.68;;
74415;SDS011;62850;42.428;25.618;2023-12-28T03:07:31;11.02;;;6.30;;
74415;SDS011;62850;42.428;25.618;2023-12-28T03:09:57;10.40;;;5.68;;
74415;SDS011;62850;42.428;25.618;2023-12-28T03:12:23;11.30;;;4.95;;
74415;SDS011;62850;42.428;25.618;2023-12-28T03:14:49;8.38;;;3.63;;
74415;SDS011;62850;42.428;25.618;2023-12-28T03:17:15;6.68;;;3.28;;
74415;SDS011;62850;42.428;25.618;2023-12-28T03:19:41;6.15;;;2.72;;
74415;SDS011;62850;42.428;25.618;2023-12-28T03:22:06;7.93;;;2.90;;
74415;SDS011;62850;42.428;25.618;2023-12-28T03:24:32;6.15;;;2.80;;
74415;SDS011;62850;42.428;25.618;2023-12-28T03:26:58;6.60;;;2.80;;
74415;SDS011;62850;42.428;25.618;2023-12-28T03:29:24;5.93;;;2.75;;
74415;SDS011;62850;42.428;25.618;2023-12-28T03:31:50;6.43;;;3.00;;
74415;SDS011;62850;42.428;25.618;2023-12-28T03:34:16;7.65;;;3.35;;
74415;SDS011;62850;42.428;25.618;2023-12-28T03:36:42;6.95;;;3.38;;
74415;SDS011;62850;42.428;25.618;2023-12-28T03:39:08;9.70;;;3.88;;
74415;SDS011;62850;42.428;25.618;2023-12-28T03:41:35;9.25;;;3.97;;
74415;SDS011;62850;42.428;25.618;2023-12-28T03:44:01;8.27;;;3.65;;
74415;SDS011;62850;42.428;25.618;2023-12-28T03:46:27;6.72;;;3.42;;
74415;SDS011;62850;42.428;25.618;2023-12-28T03:48:53;10.05;;;4.10;;
74415;SDS011;62850;42.428;25.618;2023-12-28T03:51:19;7.18;;;3.17;;
74415;SDS011;62850;42.428;25.618;2023-12-28T03:53:45;6.45;;;2.63;;
74415;SDS011;62850;42.428;25.618;2023-12-28T03:58:49;7.18;;;2.90;;
74415;SDS011;62850;42.428;25.618;2023-12-28T04:01:16;8.32;;;3.03;;
74415;SDS011;62850;42.428;25.618;2023-12-28T04:03:46;8.07;;;2.90;;
74415;SDS011;62850;42.428;25.618;2023-12-28T04:06:12;7.18;;;3.10;;
74415;SDS011;62850;42.428;25.618;2023-12-28T04:08:38;7.47;;;2.85;;
74415;SDS011;62850;42.428;25.618;2023-12-28T04:11:04;8.60;;;3.28;;
74415;SDS011;62850;42.428;25.618;2023-12-28T04:13:30;7.22;;;3.42;;
74415;SDS011;62850;42.428;25.618;2023-12-28T04:15:56;7.60;;;3.65;;
74415;SDS011;62850;42.428;25.618;2023-12-28T04:18:22;9.57;;;3.80;;
74415;SDS011;62850;42.428;25.618;2023-12-28T04:20:48;8.73;;;3.47;;
74415;SDS011;62850;42.428;25.618;2023-12-28T04:23:14;9.25;;;3.70;;
74415;SDS011;62850;42.428;25.618;2023-12-28T04:25:40;8.55;;;3.50;;
74415;SDS011;62850;42.428;25.618;2023-12-28T04:28:06;9.13;;;4.07;;
74415;SDS011;62850;42.428;25.618;2023-12-28T04:30:32;10.32;;;5.30;;
74415;SDS011;62850;42.428;25.618;2023-12-28T04:33:00;12.80;;;6.15;;
74415;SDS011;62850;42.428;25.618;2023-12-28T04:35:26;5.55;;;3.20;;
74415;SDS011;62850;42.428;25.618;2023-12-28T04:37:52;7.90;;;3.63;;
74415;SDS011;62850;42.428;25.618;2023-12-28T04:40:18;8.45;;;3.67;;
74415;SDS011;62850;42.428;25.618;2023-12-28T04:42:44;9.70;;;4.20;;
74415;SDS011;62850;42.428;25.618;2023-12-28T04:45:10;9.18;;;3.88;;
74415;SDS011;62850;42.428;25.618;2023-12-28T04:47:36;7.18;;;3.90;;
74415;SDS011;62850;42.428;25.618;2023-12-28T04:50:03;9.77;;;4.30;;
74415;SDS011;62850;42.428;25.618;2023-12-28T04:52:30;7.32;;;3.22;;
74415;SDS011;62850;42.428;25.618;2023-12-28T04:54:57;7.03;;;3.50;;
74415;SDS011;62850;42.428;25.618;2023-12-28T04:57:24;6.88;;;3.30;;
74415;SDS011;62850;42.428;25.618;2023-12-28T04:59:51;9.40;;;3.72;;
74415;SDS011;62850;42.428;25.618;2023-12-28T05:02:17;9.50;;;4.45;;
74415;SDS011;62850;42.428;25.618;2023-12-28T05:04:43;9.77;;;3.78;;
74415;SDS011;62850;42.428;25.618;2023-12-28T05:07:09;9.35;;;4.40;;
74415;SDS011;62850;42.428;25.618;2023-12-28T05:09:35;11.38;;;3.90;;
74415;SDS011;62850;42.428;25.618;2023-12-28T05:12:01;7.07;;;3.45;;
74415;SDS011;62850;42.428;25.618;2023-12-28T05:14:27;8.38;;;4.05;;
74415;SDS011;62850;42.428;25.618;2023-12-28T05:16:53;9.05;;;4.28;;
74415;SDS011;62850;42.428;25.618;2023-12-28T05:19:19;7.15;;;3.30;;
74415;SDS011;62850;42.428;25.618;2023-12-28T05:21:44;7.43;;;4.00;;
74415;SDS011;62850;42.428;25.618;2023-12-28T05:24:11;7.10;;;3.08;;
74415;SDS011;62850;42.428;25.618;2023-12-28T05:26:37;12.15;;;3.83;;
74415;SDS011;62850;42.428;25.618;2023-12-28T05:29:03;7.43;;;3.50;;
74415;SDS011;62850;42.428;25.618;2023-12-28T05:31:29;9.07;;;4.00;;
74415;SDS011;62850;42.428;25.618;2023-12-28T05:33:55;12.30;;;4.47;;
74415;SDS011;62850;42.428;25.618;2023-12-28T05:36:22;11.00;;;4.95;;
74415;SDS011;62850;42.428;25.618;2023-12-28T05:38:47;12.50;;;5.43;;
74415;SDS011;62850;42.428;25.618;2023-12-28T05:41:13;11.38;;;5.00;;
74415;SDS011;62850;42.428;25.618;2023-12-28T05:43:39;11.20;;;4.55;;
74415;SDS011;62850;42.428;25.618;2023-12-28T05:46:04;10.65;;;5.07;;
74415;SDS011;62850;42.428;25.618;2023-12-28T05:48:30;6.65;;;3.40;;
74415;SDS011;62850;42.428;25.618;2023-12-28T05:50:59;10.25;;;3.53;;
74415;SDS011;62850;42.428;25.618;2023-12-28T05:53:25;10.48;;;3.70;;
74415;SDS011;62850;42.428;25.618;2023-12-28T05:55:51;9.48;;;4.28;;
74415;SDS011;62850;42.428;25.618;2023-12-28T05:58:17;12.00;;;4.00;;
74415;SDS011;62850;42.428;25.618;2023-12-28T06:00:43;7.60;;;3.85;;
74415;SDS011;62850;42.428;25.618;2023-12-28T06:03:09;7.72;;;3.28;;
74415;SDS011;62850;42.428;25.618;2023-12-28T06:05:34;9.35;;;3.50;;
74415;SDS011;62850;42.428;25.618;2023-12-28T06:08:00;7.63;;;3.47;;
74415;SDS011;62850;42.428;25.618;2023-12-28T06:10:25;6.95;;;3.28;;
74415;SDS011;62850;42.428;25.618;2023-12-28T06:12:51;8.73;;;3.05;;
74415;SDS011;62850;42.428;25.618;2023-12-28T06:15:17;9.52;;;3.88;;
74415;SDS011;62850;42.428;25.618;2023-12-28T06:17:42;7.70;;;3.30;;
74415;SDS011;62850;42.428;25.618;2023-12-28T06:20:08;9.88;;;2.83;;
74415;SDS011;62850;42.428;25.618;2023-12-28T06:22:37;7.63;;;3.75;;
74415;SDS011;62850;42.428;25.618;2023-12-28T06:25:03;17.23;;;4.22;;
74415;SDS011;62850;42.428;25.618;2023-12-28T06:27:29;7.40;;;3.75;;
74415;SDS011;62850;42.428;25.618;2023-12-28T06:29:55;12.88;;;4.53;;
74415;SDS011;62850;42.428;25.618;2023-12-28T06:32:20;10.48;;;4.97;;
74415;SDS011;62850;42.428;25.618;2023-12-28T06:34:46;10.95;;;4.28;;
74415;SDS011;62850;42.428;25.618;2023-12-28T06:37:12;8.85;;;4.07;;
74415;SDS011;62850;42.428;25.618;2023-12-28T06:39:38;13.35;;;5.30;;
74415;SDS011;62850;42.428;25.618;2023-12-28T06:42:04;10.23;;;5.05;;
74415;SDS011;62850;42.428;25.618;2023-12-28T06:44:30;17.08;;;6.30;;
74415;SDS011;62850;42.428;25.618;2023-12-28T06:46:56;19.08;;;6.22;;
74415;SDS011;62850;42.428;25.618;2023-12-28T06:49:22;10.85;;;5.72;;
74415;SDS011;62850;42.428;25.618;2023-12-28T06:51:47;11.98;;;5.70;;
74415;SDS011;62850;42.428;25.618;2023-12-28T06:54:13;13.70;;;6.10;;
74415;SDS011;62850;42.428;25.618;2023-12-28T06:56:40;13.02;;;7.68;;
74415;SDS011;62850;42.428;25.618;2023-12-28T06:59:05;17.60;;;8.43;;
74415;SDS011;62850;42.428;25.618;2023-12-28T07:01:31;17.35;;;7.75;;
74415;SDS011;62850;42.428;25.618;2023-12-28T07:03:57;19.67;;;9.00;;
74415;SDS011;62850;42.428;25.618;2023-12-28T07:06:24;16.25;;;7.60;;
74415;SDS011;62850;42.428;25.618;2023-12-28T07:08:50;20.88;;;7.70;;
74415;SDS011;62850;42.428;25.618;2023-12-28T07:11:17;13.93;;;7.82;;
74415;SDS011;62850;42.428;25.618;2023-12-28T07:13:43;13.80;;;7.75;;
74415;SDS011;62850;42.428;25.618;2023-12-28T07:16:08;20.85;;;8.55;;
74415;SDS011;62850;42.428;25.618;2023-12-28T07:18:34;16.75;;;8.77;;
74415;SDS011;62850;42.428;25.618;2023-12-28T07:21:00;17.42;;;8.07;;
74415;SDS011;62850;42.428;25.618;2023-12-28T07:23:26;19.25;;;9.02;;
74415;SDS011;62850;42.428;25.618;2023-12-28T07:25:52;19.42;;;10.18;;
74415;SDS011;62850;42.428;25.618;2023-12-28T07:28:18;27.08;;;11.75;;
74415;SDS011;62850;42.428;25.618;2023-12-28T07:30:43;24.27;;;11.45;;
74415;SDS011;62850;42.428;25.618;2023-12-28T07:33:09;21.05;;;10.85;;
74415;SDS011;62850;42.428;25.618;2023-12-28T07:35:35;30.98;;;11.82;;
74415;SDS011;62850;42.428;25.618;2023-12-28T07:38:00;24.50;;;10.52;;
74415;SDS011;62850;42.428;25.618;2023-12-28T07:40:26;23.75;;;11.48;;
74415;SDS011;62850;42.428;25.618;2023-12-28T07:42:52;30.52;;;12.02;;
74415;SDS011;62850;42.428;25.618;2023-12-28T07:45:17;29.13;;;13.68;;
74415;SDS011;62850;42.428;25.618;2023-12-28T07:47:48;22.63;;;11.75;;
74415;SDS011;62850;42.428;25.618;2023-12-28T07:50:14;26.83;;;12.85;;
74415;SDS011;62850;42.428;25.618;2023-12-28T07:52:41;31.85;;;13.35;;
74415;SDS011;62850;42.428;25.618;2023-12-28T07:55:07;22.77;;;12.60;;
74415;SDS011;62850;42.428;25.618;2023-12-28T07:57:34;29.73;;;11.55;;
74415;SDS011;62850;42.428;25.618;2023-12-28T08:00:00;22.08;;;10.60;;
74415;SDS011;62850;42.428;25.618;2023-12-28T08:02:26;25.67;;;10.75;;
74415;SDS011;62850;42.428;25.618;2023-12-28T08:04:52;20.73;;;10.40;;
74415;SDS011;62850;42.428;25.618;2023-12-28T08:07:18;23.80;;;10.68;;
74415;SDS011;62850;42.428;25.618;2023-12-28T08:09:43;21.50;;;11.25;;
74415;SDS011;62850;42.428;25.618;2023-12-28T08:12:09;18.85;;;9.80;;
74415;SDS011;62850;42.428;25.618;2023-12-28T08:14:34;20.65;;;10.75;;
74415;SDS011;62850;42.428;25.618;2023-12-28T08:17:00;17.98;;;9.48;;
74415;SDS011;62850;42.428;25.618;2023-12-28T08:19:25;16.92;;;9.40;;
74415;SDS011;62850;42.428;25.618;2023-12-28T08:21:51;14.60;;;9.18;;
74415;SDS011;62850;42.428;25.618;2023-12-28T08:24:16;17.25;;;9.73;;
74415;SDS011;62850;42.428;25.618;2023-12-28T08:26:42;18.30;;;9.20;;
74415;SDS011;62850;42.428;25.618;2023-12-28T08:29:07;16.52;;;7.38;;
74415;SDS011;62850;42.428;25.618;2023-12-28T08:31:33;13.90;;;6.65;;
74415;SDS011;62850;42.428;25.618;2023-12-28T08:33:58;13.02;;;6.93;;
74415;SDS011;62850;42.428;25.618;2023-12-28T08:36:24;13.18;;;6.80;;
74415;SDS011;62850;42.428;25.618;2023-12-28T08:38:49;19.42;;;7.18;;
74415;SDS011;62850;42.428;25.618;2023-12-28T08:41:21;16.92;;;7.15;;
74415;SDS011;62850;42.428;25.618;2023-12-28T08:43:51;12.15;;;6.10;;
74415;SDS011;62850;42.428;25.618;2023-12-28T08:46:19;19.35;;;7.00;;
74415;SDS011;62850;42.428;25.618;2023-12-28T08:48:45;11.45;;;6.25;;
74415;SDS011;62850;42.428;25.618;2023-12-28T08:51:10;11.73;;;5.53;;
74415;SDS011;62850;42.428;25.618;2023-12-28T08:53:36;11.38;;;5.50;;
74415;SDS011;62850;42.428;25.618;2023-12-28T08:56:03;12.95;;;5.03;;
74415;SDS011;62850;42.428;25.618;2023-12-28T08:58:47;10.98;;;4.22;;
74415;SDS011;62850;42.428;25.618;2023-12-28T09:01:17;11.73;;;4.55;;
74415;SDS011;62850;42.428;25.618;2023-12-28T09:03:43;10.50;;;4.53;;
74415;SDS011;62850;42.428;25.618;2023-12-28T09:06:10;8.82;;;4.07;;
74415;SDS011;62850;42.428;25.618;2023-12-28T09:08:35;7.15;;;3.35;;
74415;SDS011;62850;42.428;25.618;2023-12-28T09:11:01;8.80;;;3.80;;
74415;SDS011;62850;42.428;25.618;2023-12-28T09:13:26;10.30;;;3.88;;
74415;SDS011;62850;42.428;25.618;2023-12-28T09:15:52;10.80;;;3.67;;
74415;SDS011;62850;42.428;25.618;2023-12-28T09:18:17;7.53;;;4.22;;
74415;SDS011;62850;42.428;25.618;2023-12-28T09:20:43;9.18;;;3.97;;
74415;SDS011;62850;42.428;25.618;2023-12-28T09:23:09;11.80;;;4.13;;
74415;SDS011;62850;42.428;25.618;2023-12-28T09:25:35;11.18;;;3.53;;
74415;SDS011;62850;42.428;25.618;2023-12-28T09:28:04;7.35;;;3.78;;
74415;SDS011;62850;42.428;25.618;2023-12-28T09:30:30;6.25;;;3.45;;
74415;SDS011;62850;42.428;25.618;2023-12-28T09:32:56;5.93;;;3.20;;
74415;SDS011;62850;42.428;25.618;2023-12-28T09:35:21;7.57;;;3.90;;
74415;SDS011;62850;42.428;25.618;2023-12-28T09:37:47;8.50;;;3.80;;
74415;SDS011;62850;42.428;25.618;2023-12-28T09:40:13;6.35;;;3.60;;
74415;SDS011;62850;42.428;25.618;2023-12-28T09:42:43;8.50;;;3.15;;
74415;SDS011;62850;42.428;25.618;2023-12-28T09:45:17;9.23;;;3.47;;
74415;SDS011;62850;42.428;25.618;2023-12-28T09:47:43;6.93;;;3.03;;
74415;SDS011;62850;42.428;25.618;2023-12-28T09:50:09;8.25;;;3.05;;
74415;SDS011;62850;42.428;25.618;2023-12-28T09:52:38;8.15;;;3.03;;
74415;SDS011;62850;42.428;25.618;2023-12-28T09:55:04;7.78;;;3.40;;
74415;SDS011;62850;42.428;25.618;2023-12-28T09:57:29;7.40;;;3.40;;
74415;SDS011;62850;42.428;25.618;2023-12-28T09:59:55;8.60;;;3.40;;
74415;SDS011;62850;42.428;25.618;2023-12-28T10:02:22;7.65;;;3.60;;
74415;SDS011;62850;42.428;25.618;2023-12-28T10:04:48;13.13;;;3.63;;
74415;SDS011;62850;42.428;25.618;2023-12-28T10:07:14;10.60;;;3.65;;
74415;SDS011;62850;42.428;25.618;2023-12-28T10:09:39;11.32;;;4.53;;
74415;SDS011;62850;42.428;25.618;2023-12-28T10:12:05;13.32;;;4.78;;
74415;SDS011;62850;42.428;25.618;2023-12-28T10:14:32;11.80;;;4.50;;
74415;SDS011;62850;42.428;25.618;2023-12-28T10:16:59;13.13;;;4.93;;
74415;SDS011;62850;42.428;25.618;2023-12-28T10:19:24;13.88;;;5.20;;
74415;SDS011;62850;42.428;25.618;2023-12-28T10:21:50;14.10;;;6.45;;
74415;SDS011;62850;42.428;25.618;2023-12-28T10:24:16;11.15;;;6.10;;
74415;SDS011;62850;42.428;25.618;2023-12-28T10:26:41;17.23;;;7.75;;
74415;SDS011;62850;42.428;25.618;2023-12-28T10:29:07;18.52;;;9.00;;
74415;SDS011;62850;42.428;25.618;2023-12-28T10:31:33;17.33;;;8.95;;
74415;SDS011;62850;42.428;25.618;2023-12-28T10:33:59;14.95;;;9.20;;
74415;SDS011;62850;42.428;25.618;2023-12-28T10:36:27;17.90;;;9.63;;
74415;SDS011;62850;42.428;25.618;2023-12-28T10:38:53;12.52;;;7.65;;
74415;SDS011;62850;42.428;25.618;2023-12-28T10:41:19;13.48;;;7.78;;
74415;SDS011;62850;42.428;25.618;2023-12-28T10:43:53;19.80;;;8.07;;
74415;SDS011;62850;42.428;25.618;2023-12-28T10:46:33;14.13;;;7.38;;
74415;SDS011;62850;42.428;25.618;2023-12-28T10:49:12;11.38;;;6.82;;
74415;SDS011;62850;42.428;25.618;2023-12-28T10:51:41;13.95;;;7.40;;
74415;SDS011;62850;42.428;25.618;2023-12-28T10:56:50;21.60;;;8.60;;
74415;SDS011;62850;42.428;25.618;2023-12-28T11:02:24;13.20;;;6.32;;
74415;SDS011;62850;42.428;25.618;2023-12-28T11:04:57;10.52;;;5.05;;
74415;SDS011;62850;42.428;25.618;2023-12-28T11:07:25;11.30;;;5.10;;
74415;SDS011;62850;42.428;25.618;2023-12-28T11:09:57;9.63;;;4.68;;
74415;SDS011;62850;42.428;25.618;2023-12-28T11:12:25;10.60;;;4.80;;
74415;SDS011;62850;42.428;25.618;2023-12-28T11:14:52;13.88;;;5.10;;
74415;SDS011;62850;42.428;25.618;2023-12-28T11:17:19;13.57;;;5.10;;
74415;SDS011;62850;42.428;25.618;2023-12-28T11:19:46;11.15;;;4.78;;
74415;SDS011;62850;42.428;25.618;2023-12-28T11:22:13;15.55;;;5.00;;
74415;SDS011;62850;42.428;25.618;2023-12-28T11:24:40;11.20;;;4.13;;
74415;SDS011;62850;42.428;25.618;2023-12-28T11:27:05;9.55;;;4.47;;
74415;SDS011;62850;42.428;25.618;2023-12-28T11:29:31;9.82;;;4.60;;
74415;SDS011;62850;42.428;25.618;2023-12-28T11:31:57;10.52;;;4.80;;
74415;SDS011;62850;42.428;25.618;2023-12-28T11:34:30;8.35;;;4.65;;
74415;SDS011;62850;42.428;25.618;2023-12-28T11:36:59;13.50;;;5.05;;
74415;SDS011;62850;42.428;25.618;2023-12-28T11:39:35;11.10;;;6.05;;
74415;SDS011;62850;42.428;25.618;2023-12-28T11:42:04;8.48;;;4.95;;
74415;SDS011;62850;42.428;25.618;2023-12-28T11:44:36;10.38;;;4.35;;
74415;SDS011;62850;42.428;25.618;2023-12-28T11:47:14;8.80;;;3.83;;
74415;SDS011;62850;42.428;25.618;2023-12-28T11:49:41;8.10;;;4.15;;
74415;SDS011;62850;42.428;25.618;2023-12-28T11:52:07;10.20;;;4.47;;
74415;SDS011;62850;42.428;25.618;2023-12-28T11:54:34;10.20;;;4.03;;
74415;SDS011;62850;42.428;25.618;2023-12-28T11:57:00;10.93;;;4.47;;
74415;SDS011;62850;42.428;25.618;2023-12-28T11:59:26;11.60;;;4.15;;
74415;SDS011;62850;42.428;25.618;2023-12-28T12:01:52;9.73;;;4.38;;
74415;SDS011;62850;42.428;25.618;2023-12-28T12:04:18;8.43;;;3.60;;
74415;SDS011;62850;42.428;25.618;2023-12-28T12:06:45;9.07;;;4.00;;
74415;SDS011;62850;42.428;25.618;2023-12-28T12:09:12;9.13;;;4.30;;
74415;SDS011;62850;42.428;25.618;2023-12-28T12:11:38;8.65;;;4.38;;
74415;SDS011;62850;42.428;25.618;2023-12-28T12:14:10;11.18;;;5.25;;
74415;SDS011;62850;42.428;25.618;2023-12-28T12:16:37;11.10;;;5.43;;
74415;SDS011;62850;42.428;25.618;2023-12-28T12:19:04;8.57;;;4.60;;
74415;SDS011;62850;42.428;25.618;2023-12-28T12:21:30;11.43;;;4.53;;
74415;SDS011;62850;42.428;25.618;2023-12-28T12:23:55;7.15;;;4.22;;
74415;SDS011;62850;42.428;25.618;2023-12-28T12:26:21;9.35;;;4.43;;
74415;SDS011;62850;42.428;25.618;2023-12-28T12:28:47;11.93;;;4.95;;
74415;SDS011;62850;42.428;25.618;2023-12-28T12:31:13;9.40;;;4.75;;
74415;SDS011;62850;42.428;25.618;2023-12-28T12:33:39;9.00;;;4.38;;
74415;SDS011;62850;42.428;25.618;2023-12-28T12:36:06;9.68;;;5.07;;
74415;SDS011;62850;42.428;25.618;2023-12-28T12:38:33;9.73;;;4.50;;
74415;SDS011;62850;42.428;25.618;2023-12-28T12:41:00;8.80;;;4.30;;
74415;SDS011;62850;42.428;25.618;2023-12-28T12:43:26;9.35;;;4.85;;
74415;SDS011;62850;42.428;25.618;2023-12-28T12:45:52;10.40;;;4.43;;
74415;SDS011;62850;42.428;25.618;2023-12-28T12:48:18;11.77;;;4.40;;
74415;SDS011;62850;42.428;25.618;2023-12-28T12:50:44;8.35;;;4.53;;
74415;SDS011;62850;42.428;25.618;2023-12-28T12:53:10;10.50;;;4.70;;
74415;SDS011;62850;42.428;25.618;2023-12-28T12:55:37;10.05;;;4.82;;
74415;SDS011;62850;42.428;25.618;2023-12-28T12:58:08;10.75;;;5.82;;
74415;SDS011;62850;42.428;25.618;2023-12-28T13:00:35;14.77;;;5.10;;
74415;SDS011;62850;42.428;25.618;2023-12-28T13:03:00;11.98;;;5.28;;
74415;SDS011;62850;42.428;25.618;2023-12-28T13:05:27;8.15;;;4.80;;
74415;SDS011;62850;42.428;25.618;2023-12-28T13:07:54;9.77;;;4.85;;
74415;SDS011;62850;42.428;25.618;2023-12-28T13:10:20;9.80;;;5.20;;
74415;SDS011;62850;42.428;25.618;2023-12-28T13:12:45;13.63;;;5.53;;
74415;SDS011;62850;42.428;25.618;2023-12-28T13:15:12;12.20;;;5.60;;
74415;SDS011;62850;42.428;25.618;2023-12-28T13:17:37;10.60;;;5.72;;
74415;SDS011;62850;42.428;25.618;2023-12-28T13:20:06;12.98;;;5.68;;
74415;SDS011;62850;42.428;25.618;2023-12-28T13:22:32;13.32;;;5.50;;
74415;SDS011;62850;42.428;25.618;2023-12-28T13:24:59;10.65;;;4.82;;
74415;SDS011;62850;42.428;25.618;2023-12-28T13:27:26;11.13;;;4.80;;
74415;SDS011;62850;42.428;25.618;2023-12-28T13:29:52;9.23;;;4.90;;
74415;SDS011;62850;42.428;25.618;2023-12-28T13:32:18;9.20;;;4.63;;
74415;SDS011;62850;42.428;25.618;2023-12-28T13:34:43;8.35;;;4.20;;
74415;SDS011;62850;42.428;25.618;2023-12-28T13:37:09;9.75;;;4.22;;
74415;SDS011;62850;42.428;25.618;2023-12-28T13:39:35;9.32;;;4.30;;
74415;SDS011;62850;42.428;25.618;2023-12-28T13:42:06;9.20;;;4.30;;
74415;SDS011;62850;42.428;25.618;2023-12-28T13:44:35;10.48;;;4.32;;
74415;SDS011;62850;42.428;25.618;2023-12-28T13:47:04;11.57;;;4.60;;
74415;SDS011;62850;42.428;25.618;2023-12-28T13:49:33;12.27;;;6.22;;
74415;SDS011;62850;42.428;25.618;2023-12-28T13:51:59;10.60;;;5.07;;
74415;SDS011;62850;42.428;25.618;2023-12-28T13:54:25;10.07;;;4.88;;
74415;SDS011;62850;42.428;25.618;2023-12-28T13:56:50;10.13;;;4.75;;
74415;SDS011;62850;42.428;25.618;2023-12-28T13:59:21;10.45;;;5.30;;
74415;SDS011;62850;42.428;25.618;2023-12-28T14:01:47;11.13;;;5.03;;
74415;SDS011;62850;42.428;25.618;2023-12-28T14:04:13;10.73;;;4.47;;
74415;SDS011;62850;42.428;25.618;2023-12-28T14:06:39;9.55;;;5.03;;
74415;SDS011;62850;42.428;25.618;2023-12-28T14:09:05;10.32;;;4.75;;
74415;SDS011;62850;42.428;25.618;2023-12-28T14:11:30;9.18;;;5.03;;
74415;SDS011;62850;42.428;25.618;2023-12-28T14:13:57;10.82;;;4.80;;
74415;SDS011;62850;42.428;25.618;2023-12-28T14:16:23;11.00;;;4.80;;
74415;SDS011;62850;42.428;25.618;2023-12-28T14:18:49;12.38;;;5.75;;
74415;SDS011;62850;42.428;25.618;2023-12-28T14:21:15;9.52;;;4.55;;
74415;SDS011;62850;42.428;25.618;2023-12-28T14:23:41;8.93;;;4.97;;
74415;SDS011;62850;42.428;25.618;2023-12-28T14:26:11;10.15;;;5.43;;
74415;SDS011;62850;42.428;25.618;2023-12-28T14:28:39;12.38;;;4.95;;
74415;SDS011;62850;42.428;25.618;2023-12-28T14:31:14;11.13;;;5.78;;
74415;SDS011;62850;42.428;25.618;2023-12-28T14:38:45;11.40;;;6.35;;
74415;SDS011;62850;42.428;25.618;2023-12-28T14:41:11;11.93;;;5.75;;